sensor_id;sensor_type;location;lat;lon;timestamp;P1;durP1;ratioP1;P2;durP2;ratioP2
6288;SDS011;3177;49.880;8.836;2023-11-19T00:01:41;2.80;;;2.60;;
6288;SDS011;3177;49.880;8.836;2023-11-19T00:04:08;2.73;;;2.53;;
6288;SDS011;3177;49.880;8.836;2023-11-19T00:06:35;2.70;;;2.50;;
6288;SDS011;3177;49.880;8.836;2023-11-19T00:09:04;2.27;;;2.17;;
6288;SDS011;3177;49.880;8.836;2023-11-19T00:11:33;2.47;;;2.30;;
6288;SDS011;3177;49.880;8.836;2023-11-19T00:14:00;2.53;;;2.33;;
6288;SDS011;3177;49.880;8.836;2023-11-19T00:16:27;1.90;;;1.80;;
6288;SDS011;3177;49.880;8.836;2023-11-19T00:18:54;2.03;;;1.93;;
6288;SDS011;3177;49.880;8.836;2023-11-19T00:21:21;2.20;;;2.10;;
6288;SDS011;3177;49.880;8.836;2023-11-19T00:23:48;1.90;;;1.80;;
6288;SDS011;3177;49.880;8.836;2023-11-19T00:26:16;2.10;;;2.00;;
6288;SDS011;3177;49.880;8.836;2023-11-19T00:28:43;2.90;;;2.13;;
6288;SDS011;3177;49.880;8.836;2023-11-19T00:31:12;2.30;;;2.20;;
6288;SDS011;3177;49.880;8.836;2023-11-19T00:33:40;1.90;;;1.80;;
6288;SDS011;3177;49.880;8.836;2023-11-19T00:36:07;1.90;;;1.80;;
6288;SDS011;3177;49.880;8.836;2023-11-19T00:38:34;2.33;;;2.17;;
6288;SDS011;3177;49.880;8.836;2023-11-19T00:41:01;2.10;;;2.00;;
6288;SDS011;3177;49.880;8.836;2023-11-19T00:43:33;1.97;;;1.87;;
6288;SDS011;3177;49.880;8.836;2023-11-19T00:46:00;1.90;;;1.80;;
6288;SDS011;3177;49.880;8.836;2023-11-19T00:48:28;3.03;;;2.40;;
6288;SDS011;3177;49.880;8.836;2023-11-19T00:50:56;2.20;;;2.10;;
6288;SDS011;3177;49.880;8.836;2023-11-19T00:53:23;1.97;;;1.87;;
6288;SDS011;3177;49.880;8.836;2023-11-19T00:55:50;1.73;;;1.70;;
6288;SDS011;3177;49.880;8.836;2023-11-19T00:58:17;2.33;;;2.17;;
6288;SDS011;3177;49.880;8.836;2023-11-19T01:00:46;2.13;;;2.03;;
6288;SDS011;3177;49.880;8.836;2023-11-19T01:03:13;2.20;;;2.10;;
6288;SDS011;3177;49.880;8.836;2023-11-19T01:05:41;2.40;;;2.20;;
6288;SDS011;3177;49.880;8.836;2023-11-19T01:08:08;2.20;;;2.10;;
6288;SDS011;3177;49.880;8.836;2023-11-19T01:10:36;2.50;;;2.20;;
6288;SDS011;3177;49.880;8.836;2023-11-19T01:13:03;2.30;;;2.20;;
6288;SDS011;3177;49.880;8.836;2023-11-19T01:15:30;2.10;;;2.00;;
6288;SDS011;3177;49.880;8.836;2023-11-19T01:17:59;1.83;;;1.70;;
6288;SDS011;3177;49.880;8.836;2023-11-19T01:20:27;1.90;;;1.80;;
6288;SDS011;3177;49.880;8.836;2023-11-19T01:22:54;2.50;;;2.30;;
6288;SDS011;3177;49.880;8.836;2023-11-19T01:25:21;1.90;;;1.80;;
6288;SDS011;3177;49.880;8.836;2023-11-19T01:27:48;2.23;;;2.13;;
6288;SDS011;3177;49.880;8.836;2023-11-19T01:30:15;1.80;;;1.80;;
6288;SDS011;3177;49.880;8.836;2023-11-19T01:32:42;1.57;;;1.57;;
6288;SDS011;3177;49.880;8.836;2023-11-19T01:35:11;2.20;;;2.00;;
6288;SDS011;3177;49.880;8.836;2023-11-19T01:37:38;2.07;;;1.73;;
6288;SDS011;3177;49.880;8.836;2023-11-19T01:40:05;2.00;;;1.90;;
6288;SDS011;3177;49.880;8.836;2023-11-19T01:42:36;1.80;;;1.70;;
6288;SDS011;3177;49.880;8.836;2023-11-19T01:45:03;1.80;;;1.70;;
6288;SDS011;3177;49.880;8.836;2023-11-19T01:47:33;1.90;;;1.80;;
6288;SDS011;3177;49.880;8.836;2023-11-19T01:50:00;1.60;;;1.50;;
6288;SDS011;3177;49.880;8.836;2023-11-19T01:52:32;1.30;;;1.30;;
6288;SDS011;3177;49.880;8.836;2023-11-19T01:55:01;1.60;;;1.50;;
6288;SDS011;3177;49.880;8.836;2023-11-19T01:57:28;1.43;;;1.43;;
6288;SDS011;3177;49.880;8.836;2023-11-19T01:59:55;1.73;;;1.63;;
6288;SDS011;3177;49.880;8.836;2023-11-19T02:02:22;1.53;;;1.53;;
6288;SDS011;3177;49.880;8.836;2023-11-19T02:04:51;1.80;;;1.70;;
6288;SDS011;3177;49.880;8.836;2023-11-19T02:07:19;1.47;;;1.47;;
6288;SDS011;3177;49.880;8.836;2023-11-19T02:09:48;1.30;;;1.30;;
6288;SDS011;3177;49.880;8.836;2023-11-19T02:12:15;2.10;;;1.30;;
6288;SDS011;3177;49.880;8.836;2023-11-19T02:14:42;1.50;;;1.50;;
6288;SDS011;3177;49.880;8.836;2023-11-19T02:19:51;1.37;;;1.37;;
6288;SDS011;3177;49.880;8.836;2023-11-19T02:22:18;1.40;;;1.40;;
6288;SDS011;3177;49.880;8.836;2023-11-19T02:24:45;1.10;;;1.10;;
6288;SDS011;3177;49.880;8.836;2023-11-19T02:27:16;1.10;;;1.10;;
6288;SDS011;3177;49.880;8.836;2023-11-19T02:29:46;1.20;;;1.20;;
6288;SDS011;3177;49.880;8.836;2023-11-19T02:32:14;1.00;;;1.00;;
6288;SDS011;3177;49.880;8.836;2023-11-19T02:34:41;1.03;;;1.03;;
6288;SDS011;3177;49.880;8.836;2023-11-19T02:37:08;1.43;;;1.33;;
6288;SDS011;3177;49.880;8.836;2023-11-19T02:39:35;1.30;;;1.30;;
6288;SDS011;3177;49.880;8.836;2023-11-19T02:42:02;1.30;;;1.30;;
6288;SDS011;3177;49.880;8.836;2023-11-19T02:44:29;1.00;;;1.00;;
6288;SDS011;3177;49.880;8.836;2023-11-19T02:46:57;1.37;;;1.37;;
6288;SDS011;3177;49.880;8.836;2023-11-19T02:49:24;2.47;;;1.37;;
6288;SDS011;3177;49.880;8.836;2023-11-19T02:51:51;1.30;;;1.30;;
6288;SDS011;3177;49.880;8.836;2023-11-19T02:54:18;1.30;;;1.30;;
6288;SDS011;3177;49.880;8.836;2023-11-19T02:56:46;1.17;;;1.17;;
6288;SDS011;3177;49.880;8.836;2023-11-19T02:59:20;1.10;;;1.10;;
6288;SDS011;3177;49.880;8.836;2023-11-19T03:01:52;1.20;;;1.20;;
6288;SDS011;3177;49.880;8.836;2023-11-19T03:04:21;1.30;;;1.30;;
6288;SDS011;3177;49.880;8.836;2023-11-19T03:06:48;1.27;;;1.00;;
6288;SDS011;3177;49.880;8.836;2023-11-19T03:09:15;1.37;;;1.30;;
6288;SDS011;3177;49.880;8.836;2023-11-19T03:11:42;1.20;;;1.20;;
6288;SDS011;3177;49.880;8.836;2023-11-19T03:14:09;1.00;;;1.00;;
6288;SDS011;3177;49.880;8.836;2023-11-19T03:16:37;1.30;;;1.30;;
6288;SDS011;3177;49.880;8.836;2023-11-19T03:19:04;1.20;;;1.20;;
6288;SDS011;3177;49.880;8.836;2023-11-19T03:21:32;1.20;;;1.20;;
6288;SDS011;3177;49.880;8.836;2023-11-19T03:23:59;1.60;;;1.60;;
6288;SDS011;3177;49.880;8.836;2023-11-19T03:26:26;1.20;;;1.20;;
6288;SDS011;3177;49.880;8.836;2023-11-19T03:28:53;1.70;;;1.60;;
6288;SDS011;3177;49.880;8.836;2023-11-19T03:31:22;1.17;;;1.17;;
6288;SDS011;3177;49.880;8.836;2023-11-19T03:33:50;1.80;;;1.70;;
6288;SDS011;3177;49.880;8.836;2023-11-19T03:36:17;1.37;;;1.37;;
6288;SDS011;3177;49.880;8.836;2023-11-19T03:38:45;1.20;;;1.20;;
6288;SDS011;3177;49.880;8.836;2023-11-19T03:41:12;3.00;;;1.50;;
6288;SDS011;3177;49.880;8.836;2023-11-19T03:43:39;1.20;;;1.20;;
6288;SDS011;3177;49.880;8.836;2023-11-19T03:46:15;1.40;;;1.40;;
6288;SDS011;3177;49.880;8.836;2023-11-19T03:48:42;1.30;;;1.30;;
6288;SDS011;3177;49.880;8.836;2023-11-19T03:51:09;1.60;;;1.50;;
6288;SDS011;3177;49.880;8.836;2023-11-19T03:53:40;1.60;;;1.50;;
6288;SDS011;3177;49.880;8.836;2023-11-19T03:56:08;1.60;;;1.50;;
6288;SDS011;3177;49.880;8.836;2023-11-19T03:58:36;1.53;;;1.43;;
6288;SDS011;3177;49.880;8.836;2023-11-19T04:01:03;1.40;;;1.40;;
6288;SDS011;3177;49.880;8.836;2023-11-19T04:03:30;1.80;;;1.70;;
6288;SDS011;3177;49.880;8.836;2023-11-19T04:05:57;1.50;;;1.50;;
6288;SDS011;3177;49.880;8.836;2023-11-19T04:08:24;1.67;;;1.57;;
6288;SDS011;3177;49.880;8.836;2023-11-19T04:10:51;1.33;;;1.33;;
6288;SDS011;3177;49.880;8.836;2023-11-19T04:13:20;1.63;;;1.63;;
6288;SDS011;3177;49.880;8.836;2023-11-19T04:15:47;1.60;;;1.50;;
6288;SDS011;3177;49.880;8.836;2023-11-19T04:18:14;1.50;;;1.40;;
6288;SDS011;3177;49.880;8.836;2023-11-19T04:20:41;1.60;;;1.50;;
6288;SDS011;3177;49.880;8.836;2023-11-19T04:23:08;1.20;;;1.20;;
6288;SDS011;3177;49.880;8.836;2023-11-19T04:25:36;1.30;;;1.30;;
6288;SDS011;3177;49.880;8.836;2023-11-19T04:28:03;1.70;;;1.60;;
6288;SDS011;3177;49.880;8.836;2023-11-19T04:30:31;1.70;;;1.60;;
6288;SDS011;3177;49.880;8.836;2023-11-19T04:32:59;1.43;;;1.40;;
6288;SDS011;3177;49.880;8.836;2023-11-19T04:35:26;1.57;;;1.47;;
6288;SDS011;3177;49.880;8.836;2023-11-19T04:37:53;1.50;;;1.50;;
6288;SDS011;3177;49.880;8.836;2023-11-19T04:40:22;4.90;;;1.63;;
6288;SDS011;3177;49.880;8.836;2023-11-19T04:42:49;1.50;;;1.50;;
6288;SDS011;3177;49.880;8.836;2023-11-19T04:45:16;1.73;;;1.50;;
6288;SDS011;3177;49.880;8.836;2023-11-19T04:47:44;1.60;;;1.60;;
6288;SDS011;3177;49.880;8.836;2023-11-19T04:50:11;1.20;;;1.20;;
6288;SDS011;3177;49.880;8.836;2023-11-19T04:52:38;1.63;;;1.60;;
6288;SDS011;3177;49.880;8.836;2023-11-19T04:55:07;1.30;;;1.30;;
6288;SDS011;3177;49.880;8.836;2023-11-19T04:57:37;1.70;;;1.60;;
6288;SDS011;3177;49.880;8.836;2023-11-19T05:00:05;1.60;;;1.50;;
6288;SDS011;3177;49.880;8.836;2023-11-19T05:02:32;2.00;;;1.80;;
6288;SDS011;3177;49.880;8.836;2023-11-19T05:05:00;1.70;;;1.60;;
6288;SDS011;3177;49.880;8.836;2023-11-19T05:07:28;1.53;;;1.53;;
6288;SDS011;3177;49.880;8.836;2023-11-19T05:09:56;2.00;;;1.90;;
6288;SDS011;3177;49.880;8.836;2023-11-19T05:12:23;1.80;;;1.70;;
6288;SDS011;3177;49.880;8.836;2023-11-19T05:14:50;1.50;;;1.50;;
6288;SDS011;3177;49.880;8.836;2023-11-19T05:17:17;2.27;;;2.07;;
6288;SDS011;3177;49.880;8.836;2023-11-19T05:19:45;1.70;;;1.63;;
6288;SDS011;3177;49.880;8.836;2023-11-19T05:22:12;2.03;;;1.93;;
6288;SDS011;3177;49.880;8.836;2023-11-19T05:24:39;2.40;;;2.27;;
6288;SDS011;3177;49.880;8.836;2023-11-19T05:27:06;2.13;;;2.00;;
6288;SDS011;3177;49.880;8.836;2023-11-19T05:29:34;2.30;;;2.20;;
6288;SDS011;3177;49.880;8.836;2023-11-19T05:32:01;2.80;;;2.60;;
6288;SDS011;3177;49.880;8.836;2023-11-19T05:34:28;2.50;;;1.97;;
6288;SDS011;3177;49.880;8.836;2023-11-19T05:36:55;2.67;;;2.47;;
6288;SDS011;3177;49.880;8.836;2023-11-19T05:39:23;2.07;;;1.97;;
6288;SDS011;3177;49.880;8.836;2023-11-19T05:41:50;2.17;;;2.07;;
6288;SDS011;3177;49.880;8.836;2023-11-19T05:44:17;2.50;;;2.30;;
6288;SDS011;3177;49.880;8.836;2023-11-19T05:46:44;3.17;;;2.53;;
6288;SDS011;3177;49.880;8.836;2023-11-19T05:49:11;2.97;;;2.70;;
6288;SDS011;3177;49.880;8.836;2023-11-19T05:51:39;3.03;;;2.73;;
6288;SDS011;3177;49.880;8.836;2023-11-19T05:54:06;2.80;;;2.60;;
6288;SDS011;3177;49.880;8.836;2023-11-19T05:56:35;2.97;;;2.70;;
6288;SDS011;3177;49.880;8.836;2023-11-19T05:59:02;5.30;;;2.43;;
6288;SDS011;3177;49.880;8.836;2023-11-19T06:01:32;2.03;;;1.83;;
6288;SDS011;3177;49.880;8.836;2023-11-19T06:03:59;2.23;;;2.03;;
6288;SDS011;3177;49.880;8.836;2023-11-19T06:06:27;2.53;;;2.33;;
6288;SDS011;3177;49.880;8.836;2023-11-19T06:08:54;4.43;;;2.50;;
6288;SDS011;3177;49.880;8.836;2023-11-19T06:11:21;2.10;;;2.00;;
6288;SDS011;3177;49.880;8.836;2023-11-19T06:13:53;1.67;;;1.57;;
6288;SDS011;3177;49.880;8.836;2023-11-19T06:16:21;2.37;;;2.23;;
6288;SDS011;3177;49.880;8.836;2023-11-19T06:18:48;2.83;;;2.33;;
6288;SDS011;3177;49.880;8.836;2023-11-19T06:21:15;3.03;;;2.37;;
6288;SDS011;3177;49.880;8.836;2023-11-19T06:23:42;2.27;;;2.13;;
6288;SDS011;3177;49.880;8.836;2023-11-19T06:26:09;2.60;;;2.50;;
6288;SDS011;3177;49.880;8.836;2023-11-19T06:28:36;7.93;;;2.33;;
6288;SDS011;3177;49.880;8.836;2023-11-19T06:31:05;2.00;;;1.90;;
6288;SDS011;3177;49.880;8.836;2023-11-19T06:33:32;3.83;;;3.40;;
6288;SDS011;3177;49.880;8.836;2023-11-19T06:35:59;3.60;;;3.30;;
6288;SDS011;3177;49.880;8.836;2023-11-19T06:38:26;2.63;;;2.43;;
6288;SDS011;3177;49.880;8.836;2023-11-19T06:40:53;4.80;;;2.50;;
6288;SDS011;3177;49.880;8.836;2023-11-19T06:43:20;2.93;;;2.33;;
6288;SDS011;3177;49.880;8.836;2023-11-19T06:45:48;2.10;;;2.00;;
6288;SDS011;3177;49.880;8.836;2023-11-19T06:48:16;2.10;;;1.90;;
6288;SDS011;3177;49.880;8.836;2023-11-19T06:50:43;2.03;;;1.93;;
6288;SDS011;3177;49.880;8.836;2023-11-19T06:53:11;2.83;;;2.00;;
6288;SDS011;3177;49.880;8.836;2023-11-19T06:55:38;2.40;;;2.20;;
6288;SDS011;3177;49.880;8.836;2023-11-19T06:58:05;2.30;;;2.13;;
6288;SDS011;3177;49.880;8.836;2023-11-19T07:00:32;2.00;;;1.90;;
6288;SDS011;3177;49.880;8.836;2023-11-19T07:03:01;2.20;;;2.10;;
6288;SDS011;3177;49.880;8.836;2023-11-19T07:05:29;2.03;;;1.93;;
6288;SDS011;3177;49.880;8.836;2023-11-19T07:07:56;1.80;;;1.70;;
6288;SDS011;3177;49.880;8.836;2023-11-19T07:10:24;1.90;;;1.80;;
6288;SDS011;3177;49.880;8.836;2023-11-19T07:12:51;4.80;;;3.27;;
6288;SDS011;3177;49.880;8.836;2023-11-19T07:15:18;2.90;;;2.70;;
6288;SDS011;3177;49.880;8.836;2023-11-19T07:17:45;3.50;;;2.93;;
6288;SDS011;3177;49.880;8.836;2023-11-19T07:20:13;2.80;;;2.60;;
6288;SDS011;3177;49.880;8.836;2023-11-19T07:22:43;3.10;;;2.80;;
6288;SDS011;3177;49.880;8.836;2023-11-19T07:25:12;7.27;;;3.47;;
6288;SDS011;3177;49.880;8.836;2023-11-19T07:27:39;3.20;;;2.63;;
6288;SDS011;3177;49.880;8.836;2023-11-19T07:30:08;3.30;;;3.00;;
6288;SDS011;3177;49.880;8.836;2023-11-19T07:32:35;6.30;;;3.37;;
6288;SDS011;3177;49.880;8.836;2023-11-19T07:35:04;5.70;;;3.50;;
6288;SDS011;3177;49.880;8.836;2023-11-19T07:37:31;3.87;;;3.43;;
6288;SDS011;3177;49.880;8.836;2023-11-19T07:39:59;4.13;;;2.83;;
6288;SDS011;3177;49.880;8.836;2023-11-19T07:42:26;4.23;;;3.40;;
6288;SDS011;3177;49.880;8.836;2023-11-19T07:44:54;5.23;;;3.60;;
6288;SDS011;3177;49.880;8.836;2023-11-19T07:47:22;3.60;;;2.97;;
6288;SDS011;3177;49.880;8.836;2023-11-19T07:49:49;6.50;;;3.13;;
6288;SDS011;3177;49.880;8.836;2023-11-19T07:52:16;3.57;;;2.90;;
6288;SDS011;3177;49.880;8.836;2023-11-19T07:54:44;4.37;;;3.07;;
6288;SDS011;3177;49.880;8.836;2023-11-19T07:57:12;3.00;;;2.70;;
6288;SDS011;3177;49.880;8.836;2023-11-19T07:59:39;4.10;;;3.00;;
6288;SDS011;3177;49.880;8.836;2023-11-19T08:02:06;2.57;;;2.37;;
6288;SDS011;3177;49.880;8.836;2023-11-19T08:04:34;3.40;;;3.10;;
6288;SDS011;3177;49.880;8.836;2023-11-19T08:07:01;3.50;;;2.73;;
6288;SDS011;3177;49.880;8.836;2023-11-19T08:09:28;2.90;;;2.70;;
6288;SDS011;3177;49.880;8.836;2023-11-19T08:11:55;5.37;;;3.17;;
6288;SDS011;3177;49.880;8.836;2023-11-19T08:14:24;2.57;;;2.37;;
6288;SDS011;3177;49.880;8.836;2023-11-19T08:16:51;4.53;;;3.10;;
6288;SDS011;3177;49.880;8.836;2023-11-19T08:19:18;2.20;;;2.10;;
6288;SDS011;3177;49.880;8.836;2023-11-19T08:21:45;3.30;;;2.30;;
6288;SDS011;3177;49.880;8.836;2023-11-19T08:24:12;2.87;;;2.50;;
6288;SDS011;3177;49.880;8.836;2023-11-19T08:26:39;2.80;;;2.30;;
6288;SDS011;3177;49.880;8.836;2023-11-19T08:29:06;2.47;;;2.27;;
6288;SDS011;3177;49.880;8.836;2023-11-19T08:31:35;5.27;;;2.20;;
6288;SDS011;3177;49.880;8.836;2023-11-19T08:34:02;3.80;;;2.30;;
6288;SDS011;3177;49.880;8.836;2023-11-19T08:36:29;1.60;;;1.60;;
6288;SDS011;3177;49.880;8.836;2023-11-19T08:38:56;2.20;;;2.00;;
6288;SDS011;3177;49.880;8.836;2023-11-19T08:41:23;2.77;;;2.10;;
6288;SDS011;3177;49.880;8.836;2023-11-19T08:43:50;1.90;;;1.77;;
6288;SDS011;3177;49.880;8.836;2023-11-19T08:46:17;2.97;;;1.97;;
6288;SDS011;3177;49.880;8.836;2023-11-19T08:48:46;2.30;;;2.10;;
6288;SDS011;3177;49.880;8.836;2023-11-19T08:51:13;6.73;;;2.37;;
6288;SDS011;3177;49.880;8.836;2023-11-19T08:53:40;1.87;;;1.73;;
6288;SDS011;3177;49.880;8.836;2023-11-19T08:56:07;3.43;;;1.80;;
6288;SDS011;3177;49.880;8.836;2023-11-19T08:58:34;2.10;;;1.90;;
6288;SDS011;3177;49.880;8.836;2023-11-19T09:01:01;2.20;;;2.00;;
6288;SDS011;3177;49.880;8.836;2023-11-19T09:03:30;4.30;;;1.80;;
6288;SDS011;3177;49.880;8.836;2023-11-19T09:06:00;2.23;;;1.80;;
6288;SDS011;3177;49.880;8.836;2023-11-19T09:08:27;3.23;;;1.97;;
6288;SDS011;3177;49.880;8.836;2023-11-19T09:10:54;5.30;;;2.20;;
6288;SDS011;3177;49.880;8.836;2023-11-19T09:13:22;2.10;;;1.90;;
6288;SDS011;3177;49.880;8.836;2023-11-19T09:15:49;5.80;;;2.43;;
6288;SDS011;3177;49.880;8.836;2023-11-19T09:18:16;2.37;;;2.23;;
6288;SDS011;3177;49.880;8.836;2023-11-19T09:20:43;2.03;;;1.83;;
6288;SDS011;3177;49.880;8.836;2023-11-19T09:23:12;2.00;;;1.90;;
6288;SDS011;3177;49.880;8.836;2023-11-19T09:25:39;3.63;;;2.07;;
6288;SDS011;3177;49.880;8.836;2023-11-19T09:28:06;2.90;;;2.00;;
6288;SDS011;3177;49.880;8.836;2023-11-19T09:30:33;2.53;;;1.67;;
6288;SDS011;3177;49.880;8.836;2023-11-19T09:33:00;1.43;;;1.33;;
6288;SDS011;3177;49.880;8.836;2023-11-19T09:35:27;1.90;;;1.80;;
6288;SDS011;3177;49.880;8.836;2023-11-19T09:37:54;1.83;;;1.37;;
6288;SDS011;3177;49.880;8.836;2023-11-19T09:40:23;1.53;;;1.40;;
6288;SDS011;3177;49.880;8.836;2023-11-19T09:42:50;2.97;;;1.40;;
6288;SDS011;3177;49.880;8.836;2023-11-19T09:45:17;1.57;;;1.47;;
6288;SDS011;3177;49.880;8.836;2023-11-19T09:47:47;1.63;;;1.50;;
6288;SDS011;3177;49.880;8.836;2023-11-19T09:50:15;1.20;;;1.20;;
6288;SDS011;3177;49.880;8.836;2023-11-19T09:52:43;1.83;;;1.60;;
6288;SDS011;3177;49.880;8.836;2023-11-19T09:55:10;1.57;;;1.47;;
6288;SDS011;3177;49.880;8.836;2023-11-19T09:57:39;1.73;;;1.63;;
6288;SDS011;3177;49.880;8.836;2023-11-19T10:00:07;1.77;;;1.67;;
6288;SDS011;3177;49.880;8.836;2023-11-19T10:02:35;3.50;;;1.90;;
6288;SDS011;3177;49.880;8.836;2023-11-19T10:05:04;1.60;;;1.50;;
6288;SDS011;3177;49.880;8.836;2023-11-19T10:07:31;2.63;;;2.00;;
6288;SDS011;3177;49.880;8.836;2023-11-19T10:09:58;2.50;;;2.00;;
6288;SDS011;3177;49.880;8.836;2023-11-19T10:12:26;1.90;;;1.70;;
6288;SDS011;3177;49.880;8.836;2023-11-19T10:14:54;2.27;;;1.90;;
6288;SDS011;3177;49.880;8.836;2023-11-19T10:17:26;2.20;;;1.67;;
6288;SDS011;3177;49.880;8.836;2023-11-19T10:19:54;1.70;;;1.60;;
6288;SDS011;3177;49.880;8.836;2023-11-19T10:22:22;2.43;;;2.10;;
6288;SDS011;3177;49.880;8.836;2023-11-19T10:24:49;4.93;;;3.10;;
6288;SDS011;3177;49.880;8.836;2023-11-19T10:27:16;4.63;;;2.93;;
6288;SDS011;3177;49.880;8.836;2023-11-19T10:29:44;3.03;;;2.20;;
6288;SDS011;3177;49.880;8.836;2023-11-19T10:32:13;2.20;;;2.00;;
6288;SDS011;3177;49.880;8.836;2023-11-19T10:34:40;2.83;;;2.00;;
6288;SDS011;3177;49.880;8.836;2023-11-19T10:37:08;5.17;;;2.70;;
6288;SDS011;3177;49.880;8.836;2023-11-19T10:39:53;3.87;;;2.00;;
6288;SDS011;3177;49.880;8.836;2023-11-19T10:42:20;2.50;;;2.00;;
6288;SDS011;3177;49.880;8.836;2023-11-19T10:44:47;2.43;;;1.80;;
6288;SDS011;3177;49.880;8.836;2023-11-19T10:47:16;5.77;;;2.73;;
6288;SDS011;3177;49.880;8.836;2023-11-19T10:49:45;2.03;;;1.93;;
6288;SDS011;3177;49.880;8.836;2023-11-19T10:52:13;3.67;;;2.20;;
6288;SDS011;3177;49.880;8.836;2023-11-19T10:54:42;3.23;;;1.70;;
6288;SDS011;3177;49.880;8.836;2023-11-19T10:57:11;3.90;;;2.20;;
6288;SDS011;3177;49.880;8.836;2023-11-19T10:59:39;3.70;;;1.83;;
6288;SDS011;3177;49.880;8.836;2023-11-19T11:02:06;2.97;;;1.90;;
6288;SDS011;3177;49.880;8.836;2023-11-19T11:04:39;2.43;;;1.73;;
6288;SDS011;3177;49.880;8.836;2023-11-19T11:07:07;6.37;;;1.90;;
6288;SDS011;3177;49.880;8.836;2023-11-19T11:09:35;2.17;;;1.83;;
6288;SDS011;3177;49.880;8.836;2023-11-19T11:12:03;2.73;;;1.60;;
6288;SDS011;3177;49.880;8.836;2023-11-19T11:14:30;1.80;;;1.60;;
6288;SDS011;3177;49.880;8.836;2023-11-19T11:17:00;2.03;;;1.60;;
6288;SDS011;3177;49.880;8.836;2023-11-19T11:19:29;1.80;;;1.70;;
6288;SDS011;3177;49.880;8.836;2023-11-19T11:21:57;5.17;;;1.60;;
6288;SDS011;3177;49.880;8.836;2023-11-19T11:24:29;1.43;;;1.30;;
6288;SDS011;3177;49.880;8.836;2023-11-19T11:27:04;1.87;;;1.60;;
6288;SDS011;3177;49.880;8.836;2023-11-19T11:29:39;2.07;;;1.57;;
6288;SDS011;3177;49.880;8.836;2023-11-19T11:32:12;3.20;;;1.60;;
6288;SDS011;3177;49.880;8.836;2023-11-19T11:34:48;3.07;;;1.77;;
6288;SDS011;3177;49.880;8.836;2023-11-19T11:37:21;1.97;;;1.33;;
6288;SDS011;3177;49.880;8.836;2023-11-19T11:39:50;2.23;;;1.50;;
6288;SDS011;3177;49.880;8.836;2023-11-19T11:42:33;2.93;;;1.43;;
6288;SDS011;3177;49.880;8.836;2023-11-19T11:45:00;1.90;;;1.60;;
6288;SDS011;3177;49.880;8.836;2023-11-19T11:50:11;2.03;;;1.40;;
6288;SDS011;3177;49.880;8.836;2023-11-19T11:55:24;3.77;;;1.77;;
6288;SDS011;3177;49.880;8.836;2023-11-19T11:57:51;1.43;;;1.33;;
6288;SDS011;3177;49.880;8.836;2023-11-19T12:00:21;5.23;;;1.97;;
6288;SDS011;3177;49.880;8.836;2023-11-19T12:02:48;3.90;;;1.50;;
6288;SDS011;3177;49.880;8.836;2023-11-19T12:05:16;2.87;;;1.83;;
6288;SDS011;3177;49.880;8.836;2023-11-19T12:07:45;1.73;;;1.50;;
6288;SDS011;3177;49.880;8.836;2023-11-19T12:10:22;1.60;;;1.40;;
6288;SDS011;3177;49.880;8.836;2023-11-19T12:12:53;2.47;;;1.90;;
6288;SDS011;3177;49.880;8.836;2023-11-19T12:15:20;1.53;;;1.37;;
6288;SDS011;3177;49.880;8.836;2023-11-19T12:17:50;9.23;;;1.77;;
6288;SDS011;3177;49.880;8.836;2023-11-19T12:20:17;2.30;;;1.80;;
6288;SDS011;3177;49.880;8.836;2023-11-19T12:22:45;1.60;;;1.43;;
6288;SDS011;3177;49.880;8.836;2023-11-19T12:25:14;3.53;;;1.70;;
6288;SDS011;3177;49.880;8.836;2023-11-19T12:27:42;4.97;;;1.70;;
6288;SDS011;3177;49.880;8.836;2023-11-19T12:30:11;1.67;;;1.20;;
6288;SDS011;3177;49.880;8.836;2023-11-19T12:32:39;3.47;;;1.80;;
6288;SDS011;3177;49.880;8.836;2023-11-19T12:35:06;4.10;;;1.63;;
6288;SDS011;3177;49.880;8.836;2023-11-19T12:37:38;2.77;;;1.60;;
6288;SDS011;3177;49.880;8.836;2023-11-19T12:40:10;3.30;;;1.60;;
6288;SDS011;3177;49.880;8.836;2023-11-19T12:42:38;2.70;;;1.70;;
6288;SDS011;3177;49.880;8.836;2023-11-19T12:45:05;3.33;;;1.77;;
6288;SDS011;3177;49.880;8.836;2023-11-19T12:47:34;2.27;;;1.60;;
6288;SDS011;3177;49.880;8.836;2023-11-19T12:50:02;2.23;;;1.30;;
6288;SDS011;3177;49.880;8.836;2023-11-19T12:52:29;3.43;;;1.30;;
6288;SDS011;3177;49.880;8.836;2023-11-19T12:54:56;5.93;;;1.97;;
6288;SDS011;3177;49.880;8.836;2023-11-19T12:57:35;1.40;;;1.10;;
6288;SDS011;3177;49.880;8.836;2023-11-19T13:00:03;4.00;;;1.60;;
6288;SDS011;3177;49.880;8.836;2023-11-19T13:02:45;2.57;;;1.33;;
6288;SDS011;3177;49.880;8.836;2023-11-19T13:05:22;6.00;;;1.77;;
6288;SDS011;3177;49.880;8.836;2023-11-19T13:07:51;1.90;;;1.60;;
6288;SDS011;3177;49.880;8.836;2023-11-19T13:10:18;4.93;;;1.93;;
6288;SDS011;3177;49.880;8.836;2023-11-19T13:12:59;2.70;;;1.73;;
6288;SDS011;3177;49.880;8.836;2023-11-19T13:15:26;3.00;;;1.37;;
6288;SDS011;3177;49.880;8.836;2023-11-19T13:17:55;4.37;;;1.60;;
6288;SDS011;3177;49.880;8.836;2023-11-19T13:20:22;1.83;;;1.10;;
6288;SDS011;3177;49.880;8.836;2023-11-19T13:22:55;3.47;;;1.70;;
6288;SDS011;3177;49.880;8.836;2023-11-19T13:25:22;5.63;;;1.70;;
6288;SDS011;3177;49.880;8.836;2023-11-19T13:27:49;5.40;;;2.20;;
6288;SDS011;3177;49.880;8.836;2023-11-19T13:30:16;4.70;;;1.60;;
6288;SDS011;3177;49.880;8.836;2023-11-19T13:32:43;8.00;;;2.80;;
6288;SDS011;3177;49.880;8.836;2023-11-19T13:35:12;3.50;;;2.13;;
6288;SDS011;3177;49.880;8.836;2023-11-19T13:37:39;7.80;;;3.07;;
6288;SDS011;3177;49.880;8.836;2023-11-19T13:40:06;3.63;;;1.80;;
6288;SDS011;3177;49.880;8.836;2023-11-19T13:42:35;5.57;;;2.17;;
6288;SDS011;3177;49.880;8.836;2023-11-19T13:45:02;5.57;;;2.00;;
6288;SDS011;3177;49.880;8.836;2023-11-19T13:47:29;4.97;;;1.50;;
6288;SDS011;3177;49.880;8.836;2023-11-19T13:49:56;7.70;;;2.20;;
6288;SDS011;3177;49.880;8.836;2023-11-19T13:52:25;6.60;;;2.30;;
6288;SDS011;3177;49.880;8.836;2023-11-19T13:54:51;2.90;;;1.60;;
6288;SDS011;3177;49.880;8.836;2023-11-19T13:57:19;3.30;;;1.80;;
6288;SDS011;3177;49.880;8.836;2023-11-19T13:59:46;4.90;;;1.97;;
6288;SDS011;3177;49.880;8.836;2023-11-19T14:02:13;4.30;;;1.90;;
6288;SDS011;3177;49.880;8.836;2023-11-19T14:04:40;4.00;;;1.67;;
6288;SDS011;3177;49.880;8.836;2023-11-19T14:07:07;3.87;;;1.43;;
6288;SDS011;3177;49.880;8.836;2023-11-19T14:09:35;3.87;;;1.73;;
6288;SDS011;3177;49.880;8.836;2023-11-19T14:12:03;5.60;;;2.10;;
6288;SDS011;3177;49.880;8.836;2023-11-19T14:14:30;3.20;;;1.57;;
6288;SDS011;3177;49.880;8.836;2023-11-19T14:16:57;3.77;;;1.47;;
6288;SDS011;3177;49.880;8.836;2023-11-19T14:19:24;6.40;;;1.83;;
6288;SDS011;3177;49.880;8.836;2023-11-19T14:21:52;6.40;;;2.10;;
6288;SDS011;3177;49.880;8.836;2023-11-19T14:24:19;5.10;;;2.00;;
6288;SDS011;3177;49.880;8.836;2023-11-19T14:26:48;5.97;;;1.90;;
6288;SDS011;3177;49.880;8.836;2023-11-19T14:29:16;5.73;;;1.83;;
6288;SDS011;3177;49.880;8.836;2023-11-19T14:31:44;4.83;;;2.00;;
6288;SDS011;3177;49.880;8.836;2023-11-19T14:34:11;8.27;;;2.57;;
6288;SDS011;3177;49.880;8.836;2023-11-19T14:36:38;5.10;;;2.40;;
6288;SDS011;3177;49.880;8.836;2023-11-19T14:39:05;2.47;;;1.97;;
6288;SDS011;3177;49.880;8.836;2023-11-19T14:41:32;5.10;;;2.07;;
6288;SDS011;3177;49.880;8.836;2023-11-19T14:44:00;8.20;;;2.23;;
6288;SDS011;3177;49.880;8.836;2023-11-19T14:46:28;6.07;;;2.07;;
6288;SDS011;3177;49.880;8.836;2023-11-19T14:48:55;3.07;;;1.50;;
6288;SDS011;3177;49.880;8.836;2023-11-19T14:51:22;2.50;;;1.63;;
6288;SDS011;3177;49.880;8.836;2023-11-19T14:53:49;6.03;;;1.83;;
6288;SDS011;3177;49.880;8.836;2023-11-19T14:56:16;2.27;;;1.23;;
6288;SDS011;3177;49.880;8.836;2023-11-19T14:58:43;3.13;;;1.30;;
6288;SDS011;3177;49.880;8.836;2023-11-19T15:01:12;1.20;;;1.10;;
6288;SDS011;3177;49.880;8.836;2023-11-19T15:03:40;3.10;;;1.20;;
6288;SDS011;3177;49.880;8.836;2023-11-19T15:06:07;1.83;;;1.50;;
6288;SDS011;3177;49.880;8.836;2023-11-19T15:08:34;4.50;;;1.33;;
6288;SDS011;3177;49.880;8.836;2023-11-19T15:11:01;2.60;;;1.60;;
6288;SDS011;3177;49.880;8.836;2023-11-19T15:13:30;2.83;;;1.57;;
6288;SDS011;3177;49.880;8.836;2023-11-19T15:15:57;3.80;;;1.50;;
6288;SDS011;3177;49.880;8.836;2023-11-19T15:18:25;2.10;;;1.40;;
6288;SDS011;3177;49.880;8.836;2023-11-19T15:20:52;3.30;;;1.80;;
6288;SDS011;3177;49.880;8.836;2023-11-19T15:23:19;4.13;;;1.90;;
6288;SDS011;3177;49.880;8.836;2023-11-19T15:25:47;3.63;;;1.50;;
6288;SDS011;3177;49.880;8.836;2023-11-19T15:28:14;2.83;;;1.37;;